Fairview, West Virginia
Current Conditions -  °F | °C
As of 6:34 AM on Friday 24 Oct 2014 (Local Time) from KMGW Reporting Station
Haze Haze  
Wind Chill: 42°   Ceiling: Unl
Heat Index: 42°   Visibility: 4mi
Dew Point: 38°   Wind: 3mph
Humidity: 85%   Direction: 190°S
Pressure: 30.12"   Gusts: NA
Location:  39.59°N, 80.25°W
Report Text: KMGW 241034Z AUTO 19003KT 4SM BR SCT021 06/03 A3012 RMK AO2 T00560033 TSNO
Loading
Personal Weather Stations






























Interactive Weather Map
Tropical Storm Tracking
New forecast layout! Learn more

10-Day Weather Forecast

Advertisements
Track Severe Weather on mobile